sensor_id;sensor_type;location;lat;lon;timestamp;P1;durP1;ratioP1;P2;durP2;ratioP2
11653;SDS011;5883;48.818;9.114;2023-08-17T00:00:28;10.40;;;8.10;;
11653;SDS011;5883;48.818;9.114;2023-08-17T00:03:13;12.93;;;7.80;;
11653;SDS011;5883;48.818;9.114;2023-08-17T00:06:00;10.95;;;7.55;;
11653;SDS011;5883;48.818;9.114;2023-08-17T00:08:47;8.43;;;7.07;;
11653;SDS011;5883;48.818;9.114;2023-08-17T00:11:32;10.93;;;7.80;;
11653;SDS011;5883;48.818;9.114;2023-08-17T00:14:18;9.32;;;7.70;;
11653;SDS011;5883;48.818;9.114;2023-08-17T00:17:03;8.48;;;7.53;;
11653;SDS011;5883;48.818;9.114;2023-08-17T00:19:51;7.88;;;7.05;;
11653;SDS011;5883;48.818;9.114;2023-08-17T00:22:36;10.00;;;7.50;;
11653;SDS011;5883;48.818;9.114;2023-08-17T00:25:23;9.45;;;7.72;;
11653;SDS011;5883;48.818;9.114;2023-08-17T00:28:08;10.88;;;7.63;;
11653;SDS011;5883;48.818;9.114;2023-08-17T00:30:53;9.07;;;6.97;;
11653;SDS011;5883;48.818;9.114;2023-08-17T00:33:38;8.80;;;7.28;;
11653;SDS011;5883;48.818;9.114;2023-08-17T00:36:23;12.88;;;7.80;;
11653;SDS011;5883;48.818;9.114;2023-08-17T00:39:08;12.35;;;8.70;;
11653;SDS011;5883;48.818;9.114;2023-08-17T00:41:54;8.77;;;7.90;;
11653;SDS011;5883;48.818;9.114;2023-08-17T00:44:39;8.30;;;7.45;;
11653;SDS011;5883;48.818;9.114;2023-08-17T00:47:24;12.07;;;7.47;;
11653;SDS011;5883;48.818;9.114;2023-08-17T00:50:10;10.02;;;7.43;;
11653;SDS011;5883;48.818;9.114;2023-08-17T00:52:58;8.38;;;7.25;;
11653;SDS011;5883;48.818;9.114;2023-08-17T00:55:43;8.57;;;6.43;;
11653;SDS011;5883;48.818;9.114;2023-08-17T00:58:31;9.93;;;7.20;;
11653;SDS011;5883;48.818;9.114;2023-08-17T01:01:16;9.80;;;6.40;;
11653;SDS011;5883;48.818;9.114;2023-08-17T01:04:03;7.88;;;6.00;;
11653;SDS011;5883;48.818;9.114;2023-08-17T01:06:48;6.95;;;5.78;;
11653;SDS011;5883;48.818;9.114;2023-08-17T01:09:34;9.32;;;6.60;;
11653;SDS011;5883;48.818;9.114;2023-08-17T01:12:20;10.18;;;6.18;;
11653;SDS011;5883;48.818;9.114;2023-08-17T01:15:10;7.70;;;6.43;;
11653;SDS011;5883;48.818;9.114;2023-08-17T01:17:58;7.80;;;6.32;;
11653;SDS011;5883;48.818;9.114;2023-08-17T01:20:44;7.20;;;6.45;;
11653;SDS011;5883;48.818;9.114;2023-08-17T01:23:32;9.50;;;6.22;;
11653;SDS011;5883;48.818;9.114;2023-08-17T01:26:18;8.55;;;6.45;;
11653;SDS011;5883;48.818;9.114;2023-08-17T01:29:03;9.57;;;6.68;;
11653;SDS011;5883;48.818;9.114;2023-08-17T01:31:51;8.68;;;6.10;;
11653;SDS011;5883;48.818;9.114;2023-08-17T01:34:39;8.55;;;7.15;;
11653;SDS011;5883;48.818;9.114;2023-08-17T01:37:25;9.85;;;6.63;;
11653;SDS011;5883;48.818;9.114;2023-08-17T01:40:13;8.98;;;6.75;;
11653;SDS011;5883;48.818;9.114;2023-08-17T01:42:59;9.18;;;6.82;;
11653;SDS011;5883;48.818;9.114;2023-08-17T01:45:44;9.75;;;6.80;;
11653;SDS011;5883;48.818;9.114;2023-08-17T01:48:29;9.68;;;6.85;;
11653;SDS011;5883;48.818;9.114;2023-08-17T01:51:17;10.80;;;7.40;;
11653;SDS011;5883;48.818;9.114;2023-08-17T01:54:02;8.85;;;6.93;;
11653;SDS011;5883;48.818;9.114;2023-08-17T01:56:49;7.45;;;6.72;;
11653;SDS011;5883;48.818;9.114;2023-08-17T01:59:34;7.75;;;6.50;;
11653;SDS011;5883;48.818;9.114;2023-08-17T02:02:19;9.75;;;6.78;;
11653;SDS011;5883;48.818;9.114;2023-08-17T02:05:05;10.13;;;7.03;;
11653;SDS011;5883;48.818;9.114;2023-08-17T02:07:51;12.77;;;6.97;;
11653;SDS011;5883;48.818;9.114;2023-08-17T02:10:36;8.52;;;7.03;;
11653;SDS011;5883;48.818;9.114;2023-08-17T02:13:22;7.78;;;6.35;;
11653;SDS011;5883;48.818;9.114;2023-08-17T02:16:07;8.15;;;6.97;;
11653;SDS011;5883;48.818;9.114;2023-08-17T02:18:52;10.68;;;7.00;;
11653;SDS011;5883;48.818;9.114;2023-08-17T02:21:37;8.50;;;7.05;;
11653;SDS011;5883;48.818;9.114;2023-08-17T02:24:22;10.07;;;7.28;;
11653;SDS011;5883;48.818;9.114;2023-08-17T02:27:09;8.20;;;6.65;;
11653;SDS011;5883;48.818;9.114;2023-08-17T02:29:56;8.55;;;6.80;;
11653;SDS011;5883;48.818;9.114;2023-08-17T02:32:41;10.80;;;7.60;;
11653;SDS011;5883;48.818;9.114;2023-08-17T02:35:26;9.52;;;6.78;;
11653;SDS011;5883;48.818;9.114;2023-08-17T02:38:11;7.63;;;6.43;;
11653;SDS011;5883;48.818;9.114;2023-08-17T02:40:56;6.75;;;6.15;;
11653;SDS011;5883;48.818;9.114;2023-08-17T02:43:41;11.88;;;6.60;;
11653;SDS011;5883;48.818;9.114;2023-08-17T02:46:27;9.68;;;7.55;;
11653;SDS011;5883;48.818;9.114;2023-08-17T02:49:12;8.85;;;6.30;;
11653;SDS011;5883;48.818;9.114;2023-08-17T02:51:58;7.45;;;6.65;;
11653;SDS011;5883;48.818;9.114;2023-08-17T02:54:43;7.55;;;6.70;;
11653;SDS011;5883;48.818;9.114;2023-08-17T02:57:28;8.15;;;6.82;;
11653;SDS011;5883;48.818;9.114;2023-08-17T03:00:13;7.32;;;6.63;;
11653;SDS011;5883;48.818;9.114;2023-08-17T03:03:00;8.15;;;6.78;;
11653;SDS011;5883;48.818;9.114;2023-08-17T03:05:47;8.77;;;6.88;;
11653;SDS011;5883;48.818;9.114;2023-08-17T03:08:32;12.25;;;7.68;;
11653;SDS011;5883;48.818;9.114;2023-08-17T03:11:18;10.10;;;7.28;;
11653;SDS011;5883;48.818;9.114;2023-08-17T03:14:04;8.75;;;7.03;;
11653;SDS011;5883;48.818;9.114;2023-08-17T03:16:49;7.80;;;6.63;;
11653;SDS011;5883;48.818;9.114;2023-08-17T03:19:38;8.23;;;7.22;;
11653;SDS011;5883;48.818;9.114;2023-08-17T03:22:24;12.65;;;7.88;;
11653;SDS011;5883;48.818;9.114;2023-08-17T03:25:09;13.43;;;7.95;;
11653;SDS011;5883;48.818;9.114;2023-08-17T03:27:55;10.73;;;8.65;;
11653;SDS011;5883;48.818;9.114;2023-08-17T03:30:40;10.15;;;8.93;;
11653;SDS011;5883;48.818;9.114;2023-08-17T03:33:25;16.15;;;11.02;;
11653;SDS011;5883;48.818;9.114;2023-08-17T03:36:11;12.18;;;9.73;;
11653;SDS011;5883;48.818;9.114;2023-08-17T03:38:57;12.95;;;9.27;;
11653;SDS011;5883;48.818;9.114;2023-08-17T03:41:42;18.65;;;10.95;;
11653;SDS011;5883;48.818;9.114;2023-08-17T03:44:27;17.30;;;10.88;;
11653;SDS011;5883;48.818;9.114;2023-08-17T03:47:12;17.45;;;10.52;;
11653;SDS011;5883;48.818;9.114;2023-08-17T03:49:58;15.40;;;10.23;;
11653;SDS011;5883;48.818;9.114;2023-08-17T03:52:44;15.35;;;9.95;;
11653;SDS011;5883;48.818;9.114;2023-08-17T03:55:30;14.13;;;10.15;;
11653;SDS011;5883;48.818;9.114;2023-08-17T03:58:15;16.20;;;9.95;;
11653;SDS011;5883;48.818;9.114;2023-08-17T04:01:00;13.38;;;9.95;;
11653;SDS011;5883;48.818;9.114;2023-08-17T04:03:46;13.48;;;9.82;;
11653;SDS011;5883;48.818;9.114;2023-08-17T04:06:31;12.05;;;9.55;;
11653;SDS011;5883;48.818;9.114;2023-08-17T04:09:18;15.73;;;10.10;;
11653;SDS011;5883;48.818;9.114;2023-08-17T04:12:03;10.55;;;9.02;;
11653;SDS011;5883;48.818;9.114;2023-08-17T04:14:49;15.25;;;10.05;;
11653;SDS011;5883;48.818;9.114;2023-08-17T04:17:34;13.73;;;9.88;;
11653;SDS011;5883;48.818;9.114;2023-08-17T04:20:19;13.60;;;10.20;;
11653;SDS011;5883;48.818;9.114;2023-08-17T04:23:05;14.77;;;10.30;;
11653;SDS011;5883;48.818;9.114;2023-08-17T04:25:52;12.30;;;9.85;;
11653;SDS011;5883;48.818;9.114;2023-08-17T04:28:40;13.48;;;9.52;;
11653;SDS011;5883;48.818;9.114;2023-08-17T04:31:25;15.13;;;9.80;;
11653;SDS011;5883;48.818;9.114;2023-08-17T04:34:10;15.43;;;10.80;;
11653;SDS011;5883;48.818;9.114;2023-08-17T04:36:55;14.95;;;9.73;;
11653;SDS011;5883;48.818;9.114;2023-08-17T04:39:40;12.85;;;10.38;;
11653;SDS011;5883;48.818;9.114;2023-08-17T04:42:29;17.30;;;10.63;;
11653;SDS011;5883;48.818;9.114;2023-08-17T04:45:17;13.25;;;9.90;;
11653;SDS011;5883;48.818;9.114;2023-08-17T04:48:04;14.25;;;10.13;;
11653;SDS011;5883;48.818;9.114;2023-08-17T04:50:50;13.52;;;9.68;;
11653;SDS011;5883;48.818;9.114;2023-08-17T04:53:40;13.88;;;9.50;;
11653;SDS011;5883;48.818;9.114;2023-08-17T04:56:25;14.35;;;9.15;;
11653;SDS011;5883;48.818;9.114;2023-08-17T04:59:12;12.50;;;8.85;;
11653;SDS011;5883;48.818;9.114;2023-08-17T05:02:00;14.55;;;10.45;;
11653;SDS011;5883;48.818;9.114;2023-08-17T05:04:45;13.10;;;9.15;;
11653;SDS011;5883;48.818;9.114;2023-08-17T05:07:31;13.02;;;8.90;;
11653;SDS011;5883;48.818;9.114;2023-08-17T05:10:16;14.77;;;8.93;;
11653;SDS011;5883;48.818;9.114;2023-08-17T05:13:00;12.05;;;9.02;;
11653;SDS011;5883;48.818;9.114;2023-08-17T05:15:47;11.05;;;8.68;;
11653;SDS011;5883;48.818;9.114;2023-08-17T05:18:32;13.95;;;8.75;;
11653;SDS011;5883;48.818;9.114;2023-08-17T05:21:17;12.25;;;8.85;;
11653;SDS011;5883;48.818;9.114;2023-08-17T05:24:02;9.55;;;8.30;;
11653;SDS011;5883;48.818;9.114;2023-08-17T05:26:48;12.75;;;9.40;;
11653;SDS011;5883;48.818;9.114;2023-08-17T05:29:34;10.50;;;8.60;;
11653;SDS011;5883;48.818;9.114;2023-08-17T05:32:20;12.95;;;9.90;;
11653;SDS011;5883;48.818;9.114;2023-08-17T05:35:05;12.73;;;9.60;;
11653;SDS011;5883;48.818;9.114;2023-08-17T05:37:50;10.93;;;8.95;;
11653;SDS011;5883;48.818;9.114;2023-08-17T05:40:35;12.38;;;9.75;;
11653;SDS011;5883;48.818;9.114;2023-08-17T05:43:20;11.45;;;10.05;;
11653;SDS011;5883;48.818;9.114;2023-08-17T05:46:05;13.45;;;10.60;;
11653;SDS011;5883;48.818;9.114;2023-08-17T05:48:51;12.35;;;10.43;;
11653;SDS011;5883;48.818;9.114;2023-08-17T05:51:36;14.27;;;10.07;;
11653;SDS011;5883;48.818;9.114;2023-08-17T05:54:21;15.25;;;10.38;;
11653;SDS011;5883;48.818;9.114;2023-08-17T05:57:06;14.13;;;10.63;;
11653;SDS011;5883;48.818;9.114;2023-08-17T05:59:51;14.70;;;10.10;;
11653;SDS011;5883;48.818;9.114;2023-08-17T06:02:36;16.35;;;11.60;;
11653;SDS011;5883;48.818;9.114;2023-08-17T06:05:24;16.58;;;9.80;;
11653;SDS011;5883;48.818;9.114;2023-08-17T06:08:10;13.35;;;10.65;;
11653;SDS011;5883;48.818;9.114;2023-08-17T06:10:55;13.75;;;10.77;;
11653;SDS011;5883;48.818;9.114;2023-08-17T06:13:40;13.65;;;10.07;;
11653;SDS011;5883;48.818;9.114;2023-08-17T06:16:25;11.82;;;10.05;;
11653;SDS011;5883;48.818;9.114;2023-08-17T06:19:10;18.92;;;9.73;;
11653;SDS011;5883;48.818;9.114;2023-08-17T06:21:57;15.20;;;10.10;;
11653;SDS011;5883;48.818;9.114;2023-08-17T06:24:42;14.32;;;9.90;;
11653;SDS011;5883;48.818;9.114;2023-08-17T06:27:26;14.65;;;9.88;;
11653;SDS011;5883;48.818;9.114;2023-08-17T06:30:12;12.60;;;10.00;;
11653;SDS011;5883;48.818;9.114;2023-08-17T06:32:59;10.95;;;9.45;;
11653;SDS011;5883;48.818;9.114;2023-08-17T06:35:46;13.10;;;9.85;;
11653;SDS011;5883;48.818;9.114;2023-08-17T06:38:34;14.27;;;9.38;;
11653;SDS011;5883;48.818;9.114;2023-08-17T06:41:21;11.27;;;9.63;;
11653;SDS011;5883;48.818;9.114;2023-08-17T06:44:09;12.60;;;10.50;;
11653;SDS011;5883;48.818;9.114;2023-08-17T06:46:54;13.10;;;9.98;;
11653;SDS011;5883;48.818;9.114;2023-08-17T06:49:40;12.95;;;9.48;;
11653;SDS011;5883;48.818;9.114;2023-08-17T06:52:26;12.45;;;9.02;;
11653;SDS011;5883;48.818;9.114;2023-08-17T06:55:13;12.13;;;9.57;;
11653;SDS011;5883;48.818;9.114;2023-08-17T06:57:58;9.43;;;8.40;;
11653;SDS011;5883;48.818;9.114;2023-08-17T07:00:45;14.65;;;9.50;;
11653;SDS011;5883;48.818;9.114;2023-08-17T07:03:30;15.00;;;8.95;;
11653;SDS011;5883;48.818;9.114;2023-08-17T07:06:15;11.27;;;9.18;;
11653;SDS011;5883;48.818;9.114;2023-08-17T07:09:00;11.35;;;8.57;;
11653;SDS011;5883;48.818;9.114;2023-08-17T07:11:50;11.25;;;8.40;;
11653;SDS011;5883;48.818;9.114;2023-08-17T07:14:35;9.10;;;7.97;;
11653;SDS011;5883;48.818;9.114;2023-08-17T07:17:21;10.05;;;7.75;;
11653;SDS011;5883;48.818;9.114;2023-08-17T07:20:06;11.07;;;8.15;;
11653;SDS011;5883;48.818;9.114;2023-08-17T07:22:52;11.15;;;8.50;;
11653;SDS011;5883;48.818;9.114;2023-08-17T07:25:37;9.35;;;7.65;;
11653;SDS011;5883;48.818;9.114;2023-08-17T07:28:24;9.27;;;7.93;;
11653;SDS011;5883;48.818;9.114;2023-08-17T07:31:09;9.70;;;7.55;;
11653;SDS011;5883;48.818;9.114;2023-08-17T07:33:54;13.25;;;8.05;;
11653;SDS011;5883;48.818;9.114;2023-08-17T07:36:39;12.95;;;8.52;;
11653;SDS011;5883;48.818;9.114;2023-08-17T07:39:24;11.93;;;8.23;;
11653;SDS011;5883;48.818;9.114;2023-08-17T07:42:09;13.05;;;7.65;;
11653;SDS011;5883;48.818;9.114;2023-08-17T07:44:56;10.65;;;6.75;;
11653;SDS011;5883;48.818;9.114;2023-08-17T07:47:41;9.50;;;7.03;;
11653;SDS011;5883;48.818;9.114;2023-08-17T07:50:26;9.02;;;7.15;;
11653;SDS011;5883;48.818;9.114;2023-08-17T07:53:11;8.73;;;6.85;;
11653;SDS011;5883;48.818;9.114;2023-08-17T07:55:56;10.65;;;7.28;;
11653;SDS011;5883;48.818;9.114;2023-08-17T07:58:41;9.52;;;7.80;;
11653;SDS011;5883;48.818;9.114;2023-08-17T08:01:27;8.05;;;6.70;;
11653;SDS011;5883;48.818;9.114;2023-08-17T08:04:12;8.55;;;6.38;;
11653;SDS011;5883;48.818;9.114;2023-08-17T08:06:57;11.52;;;7.18;;
11653;SDS011;5883;48.818;9.114;2023-08-17T08:09:42;7.68;;;6.07;;
11653;SDS011;5883;48.818;9.114;2023-08-17T08:12:27;6.32;;;5.72;;
11653;SDS011;5883;48.818;9.114;2023-08-17T08:15:12;11.52;;;6.70;;
11653;SDS011;5883;48.818;9.114;2023-08-17T08:17:59;9.55;;;6.47;;
11653;SDS011;5883;48.818;9.114;2023-08-17T08:20:43;8.38;;;6.22;;
11653;SDS011;5883;48.818;9.114;2023-08-17T08:23:28;7.45;;;5.90;;
11653;SDS011;5883;48.818;9.114;2023-08-17T08:26:14;6.13;;;5.13;;
11653;SDS011;5883;48.818;9.114;2023-08-17T08:28:59;7.65;;;5.70;;
11653;SDS011;5883;48.818;9.114;2023-08-17T08:31:44;10.63;;;5.75;;
11653;SDS011;5883;48.818;9.114;2023-08-17T08:34:30;8.65;;;6.03;;
11653;SDS011;5883;48.818;9.114;2023-08-17T08:37:17;5.18;;;4.68;;
11653;SDS011;5883;48.818;9.114;2023-08-17T08:40:02;7.43;;;5.40;;
11653;SDS011;5883;48.818;9.114;2023-08-17T08:42:47;11.45;;;5.40;;
11653;SDS011;5883;48.818;9.114;2023-08-17T08:45:32;6.53;;;5.00;;
11653;SDS011;5883;48.818;9.114;2023-08-17T08:48:18;6.95;;;5.03;;
11653;SDS011;5883;48.818;9.114;2023-08-17T08:51:05;7.13;;;5.20;;
11653;SDS011;5883;48.818;9.114;2023-08-17T08:53:54;6.25;;;4.60;;
11653;SDS011;5883;48.818;9.114;2023-08-17T08:56:43;8.80;;;4.72;;
11653;SDS011;5883;48.818;9.114;2023-08-17T08:59:29;5.72;;;4.70;;
11653;SDS011;5883;48.818;9.114;2023-08-17T09:02:15;7.45;;;5.78;;
11653;SDS011;5883;48.818;9.114;2023-08-17T09:05:01;5.18;;;4.35;;
11653;SDS011;5883;48.818;9.114;2023-08-17T09:07:48;7.05;;;5.05;;
11653;SDS011;5883;48.818;9.114;2023-08-17T09:10:34;7.32;;;4.50;;
11653;SDS011;5883;48.818;9.114;2023-08-17T09:13:19;5.30;;;4.50;;
11653;SDS011;5883;48.818;9.114;2023-08-17T09:16:04;5.53;;;4.82;;
11653;SDS011;5883;48.818;9.114;2023-08-17T09:18:49;9.57;;;4.68;;
11653;SDS011;5883;48.818;9.114;2023-08-17T09:21:37;6.55;;;4.40;;
11653;SDS011;5883;48.818;9.114;2023-08-17T09:24:24;7.65;;;4.90;;
11653;SDS011;5883;48.818;9.114;2023-08-17T09:27:08;8.70;;;4.88;;
11653;SDS011;5883;48.818;9.114;2023-08-17T09:30:00;6.55;;;4.13;;
11653;SDS011;5883;48.818;9.114;2023-08-17T09:32:53;7.10;;;4.28;;
11653;SDS011;5883;48.818;9.114;2023-08-17T09:35:37;5.57;;;4.80;;
11653;SDS011;5883;48.818;9.114;2023-08-17T09:38:24;7.40;;;4.75;;
11653;SDS011;5883;48.818;9.114;2023-08-17T09:41:11;8.23;;;4.85;;
11653;SDS011;5883;48.818;9.114;2023-08-17T09:43:57;7.50;;;5.45;;
11653;SDS011;5883;48.818;9.114;2023-08-17T09:46:42;5.18;;;4.40;;
11653;SDS011;5883;48.818;9.114;2023-08-17T09:49:30;7.88;;;5.47;;
11653;SDS011;5883;48.818;9.114;2023-08-17T09:52:16;6.68;;;5.05;;
11653;SDS011;5883;48.818;9.114;2023-08-17T09:55:00;5.68;;;4.80;;
11653;SDS011;5883;48.818;9.114;2023-08-17T09:57:50;8.20;;;4.60;;
11653;SDS011;5883;48.818;9.114;2023-08-17T10:00:35;6.53;;;4.47;;
11653;SDS011;5883;48.818;9.114;2023-08-17T10:03:21;7.13;;;5.00;;
11653;SDS011;5883;48.818;9.114;2023-08-17T10:06:10;5.25;;;4.28;;
11653;SDS011;5883;48.818;9.114;2023-08-17T10:08:56;7.50;;;4.45;;
11653;SDS011;5883;48.818;9.114;2023-08-17T10:11:43;6.03;;;4.40;;
11653;SDS011;5883;48.818;9.114;2023-08-17T10:14:33;7.53;;;4.80;;
11653;SDS011;5883;48.818;9.114;2023-08-17T10:17:20;8.27;;;4.90;;
11653;SDS011;5883;48.818;9.114;2023-08-17T10:20:07;5.47;;;4.90;;
11653;SDS011;5883;48.818;9.114;2023-08-17T10:22:54;6.70;;;5.07;;
11653;SDS011;5883;48.818;9.114;2023-08-17T10:25:43;6.80;;;5.10;;
11653;SDS011;5883;48.818;9.114;2023-08-17T10:28:28;6.88;;;4.82;;
11653;SDS011;5883;48.818;9.114;2023-08-17T10:31:18;8.20;;;5.38;;
11653;SDS011;5883;48.818;9.114;2023-08-17T10:34:03;7.75;;;6.15;;
11653;SDS011;5883;48.818;9.114;2023-08-17T10:36:49;7.47;;;5.03;;
11653;SDS011;5883;48.818;9.114;2023-08-17T10:39:34;7.53;;;5.45;;
11653;SDS011;5883;48.818;9.114;2023-08-17T10:42:29;10.90;;;6.15;;
11653;SDS011;5883;48.818;9.114;2023-08-17T10:45:25;5.57;;;4.97;;
11653;SDS011;5883;48.818;9.114;2023-08-17T10:48:27;8.07;;;5.97;;
11653;SDS011;5883;48.818;9.114;2023-08-17T10:51:13;7.47;;;4.25;;
11653;SDS011;5883;48.818;9.114;2023-08-17T10:54:01;7.38;;;5.10;;
11653;SDS011;5883;48.818;9.114;2023-08-17T10:56:47;4.90;;;4.38;;
11653;SDS011;5883;48.818;9.114;2023-08-17T10:59:32;6.00;;;4.70;;
11653;SDS011;5883;48.818;9.114;2023-08-17T11:02:19;8.32;;;5.47;;
11653;SDS011;5883;48.818;9.114;2023-08-17T11:05:08;8.93;;;5.50;;
11653;SDS011;5883;48.818;9.114;2023-08-17T11:07:53;8.27;;;5.22;;
11653;SDS011;5883;48.818;9.114;2023-08-17T11:10:38;5.70;;;4.68;;
11653;SDS011;5883;48.818;9.114;2023-08-17T11:13:23;7.90;;;5.28;;
11653;SDS011;5883;48.818;9.114;2023-08-17T11:16:10;7.55;;;5.90;;
11653;SDS011;5883;48.818;9.114;2023-08-17T11:18:55;5.50;;;5.00;;
11653;SDS011;5883;48.818;9.114;2023-08-17T11:21:43;7.00;;;5.47;;
11653;SDS011;5883;48.818;9.114;2023-08-17T11:24:29;6.28;;;4.70;;
11653;SDS011;5883;48.818;9.114;2023-08-17T11:27:14;8.80;;;6.78;;
11653;SDS011;5883;48.818;9.114;2023-08-17T11:29:59;8.75;;;6.25;;
11653;SDS011;5883;48.818;9.114;2023-08-17T11:32:45;8.93;;;6.93;;
11653;SDS011;5883;48.818;9.114;2023-08-17T11:35:30;6.38;;;5.60;;
11653;SDS011;5883;48.818;9.114;2023-08-17T11:38:16;7.75;;;6.00;;
11653;SDS011;5883;48.818;9.114;2023-08-17T11:41:02;6.57;;;4.85;;
11653;SDS011;5883;48.818;9.114;2023-08-17T11:43:47;5.80;;;5.25;;
11653;SDS011;5883;48.818;9.114;2023-08-17T11:46:34;9.50;;;5.18;;
11653;SDS011;5883;48.818;9.114;2023-08-17T11:49:19;8.85;;;5.82;;
11653;SDS011;5883;48.818;9.114;2023-08-17T11:52:09;7.63;;;4.93;;
11653;SDS011;5883;48.818;9.114;2023-08-17T11:54:56;9.63;;;5.03;;
11653;SDS011;5883;48.818;9.114;2023-08-17T11:57:41;5.75;;;5.15;;
11653;SDS011;5883;48.818;9.114;2023-08-17T12:00:26;9.13;;;5.63;;
11653;SDS011;5883;48.818;9.114;2023-08-17T12:03:14;6.15;;;5.53;;
11653;SDS011;5883;48.818;9.114;2023-08-17T12:06:00;8.50;;;5.80;;
11653;SDS011;5883;48.818;9.114;2023-08-17T12:08:45;5.82;;;4.75;;
11653;SDS011;5883;48.818;9.114;2023-08-17T12:11:32;5.60;;;4.43;;
11653;SDS011;5883;48.818;9.114;2023-08-17T12:14:17;6.40;;;4.80;;
11653;SDS011;5883;48.818;9.114;2023-08-17T12:17:04;7.07;;;4.35;;
11653;SDS011;5883;48.818;9.114;2023-08-17T12:19:55;9.77;;;4.68;;
11653;SDS011;5883;48.818;9.114;2023-08-17T12:22:43;6.03;;;4.32;;
11653;SDS011;5883;48.818;9.114;2023-08-17T12:25:28;7.88;;;4.85;;
11653;SDS011;5883;48.818;9.114;2023-08-17T12:28:16;8.90;;;4.50;;
11653;SDS011;5883;48.818;9.114;2023-08-17T12:31:02;6.03;;;3.97;;
11653;SDS011;5883;48.818;9.114;2023-08-17T12:33:47;4.70;;;4.22;;
11653;SDS011;5883;48.818;9.114;2023-08-17T12:36:32;6.13;;;4.47;;
11653;SDS011;5883;48.818;9.114;2023-08-17T12:39:17;7.25;;;4.05;;
11653;SDS011;5883;48.818;9.114;2023-08-17T12:42:02;5.78;;;3.90;;
11653;SDS011;5883;48.818;9.114;2023-08-17T12:44:49;6.53;;;4.00;;
11653;SDS011;5883;48.818;9.114;2023-08-17T12:47:34;6.95;;;4.68;;
11653;SDS011;5883;48.818;9.114;2023-08-17T12:50:19;4.75;;;3.72;;
11653;SDS011;5883;48.818;9.114;2023-08-17T12:53:04;4.53;;;3.40;;
11653;SDS011;5883;48.818;9.114;2023-08-17T12:55:49;5.63;;;3.40;;
11653;SDS011;5883;48.818;9.114;2023-08-17T12:58:34;5.55;;;3.20;;
11653;SDS011;5883;48.818;9.114;2023-08-17T13:01:21;6.45;;;3.63;;
11653;SDS011;5883;48.818;9.114;2023-08-17T13:04:06;4.90;;;3.50;;
11653;SDS011;5883;48.818;9.114;2023-08-17T13:06:51;6.72;;;2.90;;
11653;SDS011;5883;48.818;9.114;2023-08-17T13:09:37;4.40;;;3.22;;
11653;SDS011;5883;48.818;9.114;2023-08-17T13:12:22;5.93;;;3.38;;
11653;SDS011;5883;48.818;9.114;2023-08-17T13:15:07;8.32;;;3.38;;
11653;SDS011;5883;48.818;9.114;2023-08-17T13:17:54;4.18;;;3.58;;
11653;SDS011;5883;48.818;9.114;2023-08-17T13:20:39;5.80;;;3.75;;
11653;SDS011;5883;48.818;9.114;2023-08-17T13:23:24;4.97;;;4.05;;
11653;SDS011;5883;48.818;9.114;2023-08-17T13:26:10;5.82;;;4.38;;
11653;SDS011;5883;48.818;9.114;2023-08-17T13:28:55;4.90;;;4.40;;
11653;SDS011;5883;48.818;9.114;2023-08-17T13:31:40;6.32;;;4.95;;
11653;SDS011;5883;48.818;9.114;2023-08-17T13:34:26;5.40;;;4.32;;
11653;SDS011;5883;48.818;9.114;2023-08-17T13:37:11;4.95;;;4.32;;
11653;SDS011;5883;48.818;9.114;2023-08-17T13:39:56;5.22;;;4.70;;
11653;SDS011;5883;48.818;9.114;2023-08-17T13:42:41;6.68;;;4.90;;
11653;SDS011;5883;48.818;9.114;2023-08-17T13:45:30;6.72;;;5.15;;
11653;SDS011;5883;48.818;9.114;2023-08-17T13:48:15;6.45;;;5.50;;
11653;SDS011;5883;48.818;9.114;2023-08-17T13:51:01;5.53;;;4.90;;
11653;SDS011;5883;48.818;9.114;2023-08-17T13:53:46;6.30;;;5.55;;
11653;SDS011;5883;48.818;9.114;2023-08-17T13:56:31;5.22;;;4.70;;
11653;SDS011;5883;48.818;9.114;2023-08-17T13:59:17;5.75;;;5.15;;
11653;SDS011;5883;48.818;9.114;2023-08-17T14:02:02;10.00;;;5.57;;
11653;SDS011;5883;48.818;9.114;2023-08-17T14:04:47;8.10;;;5.30;;
11653;SDS011;5883;48.818;9.114;2023-08-17T14:07:33;10.10;;;6.07;;
11653;SDS011;5883;48.818;9.114;2023-08-17T14:10:18;10.13;;;5.65;;
11653;SDS011;5883;48.818;9.114;2023-08-17T14:13:03;8.25;;;5.63;;
11653;SDS011;5883;48.818;9.114;2023-08-17T14:15:49;5.97;;;5.38;;
11653;SDS011;5883;48.818;9.114;2023-08-17T14:18:34;6.55;;;5.50;;
11653;SDS011;5883;48.818;9.114;2023-08-17T14:21:19;11.20;;;5.68;;
11653;SDS011;5883;48.818;9.114;2023-08-17T14:24:05;6.78;;;5.10;;
11653;SDS011;5883;48.818;9.114;2023-08-17T14:26:51;8.40;;;5.55;;
11653;SDS011;5883;48.818;9.114;2023-08-17T14:29:36;7.32;;;4.93;;
11653;SDS011;5883;48.818;9.114;2023-08-17T14:32:21;8.15;;;5.38;;
11653;SDS011;5883;48.818;9.114;2023-08-17T14:35:07;6.13;;;4.78;;
11653;SDS011;5883;48.818;9.114;2023-08-17T14:37:52;6.97;;;5.60;;
11653;SDS011;5883;48.818;9.114;2023-08-17T14:40:43;6.03;;;5.43;;
11653;SDS011;5883;48.818;9.114;2023-08-17T14:43:28;5.70;;;5.10;;
11653;SDS011;5883;48.818;9.114;2023-08-17T14:46:13;6.30;;;5.40;;
11653;SDS011;5883;48.818;9.114;2023-08-17T14:48:58;8.55;;;5.50;;
11653;SDS011;5883;48.818;9.114;2023-08-17T14:51:45;6.63;;;5.32;;
11653;SDS011;5883;48.818;9.114;2023-08-17T14:54:30;9.82;;;5.57;;
11653;SDS011;5883;48.818;9.114;2023-08-17T14:57:16;8.68;;;5.53;;
11653;SDS011;5883;48.818;9.114;2023-08-17T15:00:01;7.15;;;5.05;;
11653;SDS011;5883;48.818;9.114;2023-08-17T15:02:47;8.18;;;5.50;;
11653;SDS011;5883;48.818;9.114;2023-08-17T15:05:33;6.78;;;5.47;;
11653;SDS011;5883;48.818;9.114;2023-08-17T15:08:19;7.45;;;4.82;;
11653;SDS011;5883;48.818;9.114;2023-08-17T15:11:04;7.28;;;4.93;;
11653;SDS011;5883;48.818;9.114;2023-08-17T15:13:51;9.73;;;5.50;;
11653;SDS011;5883;48.818;9.114;2023-08-17T15:16:36;11.60;;;6.40;;
11653;SDS011;5883;48.818;9.114;2023-08-17T15:19:20;10.38;;;5.40;;
11653;SDS011;5883;48.818;9.114;2023-08-17T15:22:06;9.02;;;6.65;;
11653;SDS011;5883;48.818;9.114;2023-08-17T15:24:51;8.88;;;5.72;;
11653;SDS011;5883;48.818;9.114;2023-08-17T15:27:36;7.32;;;5.57;;
11653;SDS011;5883;48.818;9.114;2023-08-17T15:30:23;7.70;;;5.70;;
11653;SDS011;5883;48.818;9.114;2023-08-17T15:33:08;6.38;;;5.78;;
11653;SDS011;5883;48.818;9.114;2023-08-17T15:35:54;9.73;;;5.85;;
11653;SDS011;5883;48.818;9.114;2023-08-17T15:38:41;6.68;;;5.57;;
11653;SDS011;5883;48.818;9.114;2023-08-17T15:41:26;7.13;;;5.88;;
11653;SDS011;5883;48.818;9.114;2023-08-17T15:44:11;7.82;;;5.47;;
11653;SDS011;5883;48.818;9.114;2023-08-17T15:46:58;6.43;;;5.45;;
11653;SDS011;5883;48.818;9.114;2023-08-17T15:49:45;7.60;;;4.75;;
11653;SDS011;5883;48.818;9.114;2023-08-17T15:52:30;6.90;;;4.97;;
11653;SDS011;5883;48.818;9.114;2023-08-17T15:55:15;5.25;;;4.53;;
11653;SDS011;5883;48.818;9.114;2023-08-17T15:58:00;6.65;;;4.15;;
11653;SDS011;5883;48.818;9.114;2023-08-17T16:00:45;4.25;;;3.85;;
11653;SDS011;5883;48.818;9.114;2023-08-17T16:03:32;4.88;;;3.97;;
11653;SDS011;5883;48.818;9.114;2023-08-17T16:06:17;5.78;;;4.45;;
11653;SDS011;5883;48.818;9.114;2023-08-17T16:09:02;8.38;;;4.68;;
11653;SDS011;5883;48.818;9.114;2023-08-17T16:11:47;5.25;;;4.75;;
11653;SDS011;5883;48.818;9.114;2023-08-17T16:14:32;7.50;;;4.72;;
11653;SDS011;5883;48.818;9.114;2023-08-17T16:17:17;5.93;;;4.47;;
11653;SDS011;5883;48.818;9.114;2023-08-17T16:20:05;5.55;;;4.30;;
11653;SDS011;5883;48.818;9.114;2023-08-17T16:22:51;4.97;;;3.92;;
11653;SDS011;5883;48.818;9.114;2023-08-17T16:25:36;4.03;;;3.63;;
11653;SDS011;5883;48.818;9.114;2023-08-17T16:28:21;5.32;;;3.70;;
11653;SDS011;5883;48.818;9.114;2023-08-17T16:31:06;5.25;;;4.38;;
11653;SDS011;5883;48.818;9.114;2023-08-17T16:33:51;5.75;;;3.85;;
11653;SDS011;5883;48.818;9.114;2023-08-17T16:36:37;9.20;;;4.53;;
11653;SDS011;5883;48.818;9.114;2023-08-17T16:39:22;8.25;;;4.22;;
11653;SDS011;5883;48.818;9.114;2023-08-17T16:42:07;4.18;;;3.58;;
11653;SDS011;5883;48.818;9.114;2023-08-17T16:44:52;4.55;;;3.97;;
11653;SDS011;5883;48.818;9.114;2023-08-17T16:47:37;5.65;;;4.07;;